Time;durP1;ratioP1;P1;durP2;ratioP2;P2;SDS_P1;SDS_P2;PMS_P1;PMS_P2;Temp;Humidity;BMP_temperature;BMP_pressure;BME280_temperature;BME280_humidity;BME280_pressure;Samples;Min_cycle;Max_cycle;Signal;HPM_P1;HPM_P2
2023/06/22 00:01:58;;;;;;;14.25;7.47;;;;;;;21.14;nan;61609.38;5092157;28;20312;-59
2023/06/22 00:04:24;;;;;;;12.90;7.25;;;;;;;21.37;nan;61551.09;5092063;28;20539;-59
2023/06/22 00:06:49;;;;;;;19.52;7.55;;;;;;;21.17;nan;61460.94;5091769;28;20655;-59
2023/06/22 00:09:14;;;;;;;13.48;7.93;;;;;;;21.26;nan;61466.47;5092018;28;20165;-61
2023/06/22 00:11:40;;;;;;;14.48;7.82;;;;;;;21.33;nan;61421.81;5091840;28;20241;-59
2023/06/22 00:14:05;;;;;;;13.52;7.97;;;;;;;21.07;nan;61533.88;5092406;28;20205;-60
2023/06/22 00:16:34;;;;;;;15.35;8.00;;;;;;;21.30;nan;61455.38;5091937;28;20694;-59
2023/06/22 00:19:00;;;;;;;15.88;8.05;;;;;;;21.31;nan;61417.53;5091761;28;20165;-59
2023/06/22 00:21:26;;;;;;;12.35;7.00;;;;;;;21.26;nan;61430.09;5091771;28;20184;-59
2023/06/22 00:23:52;;;;;;;15.27;8.07;;;;;;;21.13;nan;61374.38;5091804;28;20169;-59
2023/06/22 00:26:17;;;;;;;12.57;7.53;;;;;;;21.01;nan;61568.09;5092536;28;20226;-59
2023/06/22 00:28:43;;;;;;;12.75;7.25;;;;;;;20.98;nan;61292.53;5091763;28;20180;-60
2023/06/22 00:31:08;;;;;;;11.95;7.03;;;;;;;21.00;nan;61359.69;5049972;28;20166;-60
2023/06/22 00:33:34;;;;;;;12.77;7.60;;;;;;;20.93;nan;61336.22;5092022;28;20189;-60
2023/06/22 00:35:59;;;;;;;11.63;7.05;;;;;;;20.63;nan;61427.00;5091507;28;20173;-60
2023/06/22 00:38:25;;;;;;;11.77;8.02;;;;;;;20.80;nan;61258.69;5090567;28;20264;-60
2023/06/22 00:40:50;;;;;;;14.23;7.75;;;;;;;20.77;nan;61253.25;5091964;28;20215;-60
2023/06/22 00:43:15;;;;;;;13.77;7.47;;;;;;;20.81;nan;61109.75;5091625;28;20184;-58
2023/06/22 00:45:41;;;;;;;11.88;6.68;;;;;;;20.83;nan;61174.34;5091786;28;20166;-61
2023/06/22 00:48:07;;;;;;;11.88;7.05;;;;;;;20.53;nan;61010.81;5091471;28;20209;-59
2023/06/22 00:50:34;;;;;;;14.32;8.45;;;;;;;19.42;nan;60634.59;5091680;28;20165;-60
2023/06/22 00:53:04;;;;;;;12.38;7.43;;;;;;;20.42;nan;60676.72;5091031;28;20562;-60
2023/06/22 00:55:30;;;;;;;11.35;7.40;;;;;;;20.54;nan;60583.72;5091675;28;20170;-59
2023/06/22 00:57:55;;;;;;;13.82;7.38;;;;;;;20.39;nan;60463.78;5091768;28;20179;-59
2023/06/22 01:00:24;;;;;;;15.77;7.50;;;;;;;20.22;nan;60073.97;5091599;28;20172;-60
2023/06/22 01:02:51;;;;;;;12.98;7.78;;;;;;;20.20;nan;60087.88;5094784;28;20304;-60
2023/06/22 01:05:21;;;;;;;15.95;8.52;;;;;;;20.23;nan;60041.38;5095185;28;20176;-60
2023/06/22 01:07:49;;;;;;;14.82;8.40;;;;;;;20.47;nan;60057.03;5095736;28;20207;-59
2023/06/22 01:10:24;;;;;;;18.15;9.10;;;;;;;20.52;nan;60446.56;5095416;28;20652;-60
2023/06/22 01:12:53;;;;;;;14.68;8.07;;;;;;;20.36;nan;60717.28;5095654;28;20280;-59
2023/06/22 01:15:31;;;;;;;14.45;8.27;;;;;;;20.53;nan;60556.69;5095063;28;20587;-59
2023/06/22 01:17:57;;;;;;;13.27;8.07;;;;;;;20.16;nan;60578.75;5095247;28;20645;-60
2023/06/22 01:20:25;;;;;;;13.77;7.88;;;;;;;20.44;nan;60806.66;5095290;28;20192;-59
2023/06/22 01:23:26;;;;;;;11.70;7.05;;;;;;;20.55;nan;61057.75;5094724;28;20173;-59
2023/06/22 01:26:02;;;;;;;12.32;7.40;;;;;;;20.55;nan;61096.69;5095025;28;20597;-59
2023/06/22 01:28:47;;;;;;;12.63;7.68;;;;;;;20.41;nan;61095.94;5095660;28;20177;-60
2023/06/22 01:31:16;;;;;;;13.85;7.72;;;;;;;20.32;nan;61067.66;5094989;28;20215;-59
2023/06/22 01:33:45;;;;;;;11.85;7.35;;;;;;;20.33;nan;61084.94;5095072;28;20266;-59
2023/06/22 01:36:12;;;;;;;12.13;7.50;;;;;;;20.13;nan;61003.34;5095098;28;20652;-59
2023/06/22 01:38:39;;;;;;;11.10;7.18;;;;;;;19.87;nan;61015.63;5094914;28;20203;-60
2023/06/22 01:41:04;;;;;;;12.98;7.70;;;;;;;19.98;nan;61069.47;5093822;28;20180;-60
2023/06/22 01:43:30;;;;;;;14.60;8.60;;;;;;;19.98;nan;60856.84;5094899;28;20557;-59
2023/06/22 01:45:57;;;;;;;14.50;8.73;;;;;;;19.80;nan;60627.28;5094478;28;20177;-59
2023/06/22 01:48:23;;;;;;;14.63;8.07;;;;;;;19.70;nan;60375.09;4571316;28;20855;-59
2023/06/22 01:50:49;;;;;;;12.95;7.35;;;;;;;19.79;nan;60017.09;5088558;28;20185;-59
2023/06/22 01:53:15;;;;;;;11.60;6.78;;;;;;;19.73;nan;59689.19;5094432;28;20223;-59
2023/06/22 01:55:40;;;;;;;13.18;7.32;;;;;;;19.63;nan;59522.72;5094428;28;20214;-59
2023/06/22 01:58:06;;;;;;;13.00;7.70;;;;;;;19.36;nan;59255.41;5094455;28;20256;-59
2023/06/22 02:00:38;;;;;;;12.00;7.63;;;;;;;19.48;nan;59378.78;5094396;28;20268;-59
2023/06/22 02:03:21;;;;;;;12.15;7.25;;;;;;;19.61;nan;59136.63;5095103;28;20252;-59
2023/06/22 02:05:54;;;;;;;13.98;8.43;;;;;;;19.58;nan;58406.22;5094375;28;20238;-59
2023/06/22 02:08:23;;;;;;;14.95;8.00;;;;;;;19.56;nan;57613.88;5094304;28;20184;-60
2023/06/22 02:10:52;;;;;;;16.83;8.13;;;;;;;19.26;nan;56793.31;5094267;28;20184;-60
2023/06/22 02:13:19;;;;;;;13.27;7.65;;;;;;;19.13;nan;56265.53;5093426;28;20201;-60
2023/06/22 02:15:45;;;;;;;13.60;7.55;;;;;;;19.40;nan;54845.31;5093937;28;20166;-60
2023/06/22 02:18:12;;;;;;;13.95;7.82;;;;;;;19.39;nan;53810.09;5093887;28;20184;-59
2023/06/22 02:20:38;;;;;;;11.98;7.72;;;;;;;19.03;nan;52285.66;5094455;28;20162;-59
2023/06/22 02:23:06;;;;;;;14.23;7.93;;;;;;;19.09;nan;51630.44;5094053;28;20184;-59
2023/06/22 02:25:32;;;;;;;14.02;8.52;;;;;;;18.86;nan;44383.94;5093950;28;20173;-59
2023/06/22 02:27:57;;;;;;;14.18;8.63;;;;;;;19.07;nan;42096.50;5093612;28;20636;-59
2023/06/22 02:30:23;;;;;;;15.32;9.05;;;;;;;18.67;nan;39577.25;5092478;28;20173;-59
2023/06/22 02:32:48;;;;;;;13.20;8.10;;;;;;;19.25;nan;42260.47;5093068;28;20200;-59
2023/06/22 02:35:14;;;;;;;17.60;8.35;;;;;;;19.10;nan;42892.09;5093405;28;20252;-60
2023/06/22 02:37:41;;;;;;;12.82;7.97;;;;;;;19.09;nan;45681.69;5093349;28;20169;-59
2023/06/22 02:40:11;;;;;;;14.40;8.52;;;;;;;19.10;nan;46636.41;5093231;28;20274;-59
2023/06/22 02:42:37;;;;;;;14.00;8.13;;;;;;;19.36;nan;46886.00;5093175;28;20659;-60
2023/06/22 02:45:03;;;;;;;16.15;9.32;;;;;;;19.35;nan;46425.97;5093036;28;20173;-58
2023/06/22 02:47:28;;;;;;;12.50;8.13;;;;;;;19.15;nan;47666.84;5093279;28;20173;-59
2023/06/22 02:49:54;;;;;;;15.10;8.57;;;;;;;19.32;nan;48036.13;5092841;28;20170;-59
2023/06/22 02:52:19;;;;;;;17.48;8.52;;;;;;;19.33;nan;48305.41;5092837;28;20233;-58
2023/06/22 02:54:47;;;;;;;13.90;8.68;;;;;;;19.15;nan;49914.69;5092916;28;20342;-60
2023/06/22 02:57:13;;;;;;;12.32;7.78;;;;;;;19.58;nan;53618.72;5092920;28;20166;-59
2023/06/22 02:59:41;;;;;;;12.80;7.75;;;;;;;19.45;nan;57571.06;5092701;28;20181;-60
2023/06/22 03:02:07;;;;;;;12.85;7.72;;;;;;;19.76;nan;59435.97;5092642;28;20221;-59
2023/06/22 03:04:33;;;;;;;13.95;6.93;;;;;;;19.75;nan;60093.00;5093594;28;20181;-59
2023/06/22 03:07:00;;;;;;;9.85;6.35;;;;;;;20.29;nan;60979.78;5092684;28;20182;-60
2023/06/22 03:09:27;;;;;;;11.13;6.93;;;;;;;20.35;nan;61156.66;5091603;28;20188;-59
2023/06/22 03:11:56;;;;;;;10.68;6.63;;;;;;;21.17;nan;61442.75;5093017;28;20182;-60
2023/06/22 03:14:21;;;;;;;11.48;6.55;;;;;;;21.45;nan;61578.94;5092409;28;20197;-59
2023/06/22 03:16:47;;;;;;;12.13;7.35;;;;;;;21.58;nan;61535.88;5092104;28;20183;-59
2023/06/22 03:19:13;;;;;;;11.98;7.18;;;;;;;22.57;nan;61829.06;5091931;28;20217;-59
2023/06/22 03:21:39;;;;;;;12.52;6.75;;;;;;;22.89;nan;61831.53;5092828;28;20192;-60
2023/06/22 03:24:05;;;;;;;11.55;6.95;;;;;;;23.38;nan;61919.94;5091305;28;20539;-59
2023/06/22 03:26:30;;;;;;;11.57;6.72;;;;;;;23.84;nan;62007.63;5092638;28;20192;-60
2023/06/22 03:28:56;;;;;;;13.80;7.25;;;;;;;24.42;nan;62102.34;5091791;28;20181;-60
2023/06/22 03:31:22;;;;;;;11.27;6.63;;;;;;;24.63;nan;62178.53;5093162;28;20242;-62
2023/06/22 03:33:49;;;;;;;10.25;6.25;;;;;;;25.17;nan;62199.72;5092012;28;20292;-60
2023/06/22 03:36:22;;;;;;;10.35;6.32;;;;;;;25.92;nan;62606.22;5092713;28;20177;-60
2023/06/22 03:38:48;;;;;;;12.20;6.53;;;;;;;26.39;nan;62389.56;5091885;28;20173;-60
2023/06/22 03:41:14;;;;;;;10.43;6.20;;;;;;;26.76;nan;62654.19;5092574;28;20173;-60
2023/06/22 03:43:40;;;;;;;11.38;6.38;;;;;;;26.97;nan;62450.00;5091242;28;20641;-63
2023/06/22 03:46:05;;;;;;;10.98;6.68;;;;;;;27.75;nan;62868.44;5092549;28;20224;-60
2023/06/22 03:48:31;;;;;;;10.65;7.15;;;;;;;28.26;nan;62611.00;5091386;28;20272;-59
2023/06/22 03:50:57;;;;;;;11.23;6.57;;;;;;;28.61;nan;62848.34;5092459;28;20177;-59
2023/06/22 03:53:22;;;;;;;12.43;7.28;;;;;;;29.04;nan;62730.78;5091538;28;20258;-60
2023/06/22 03:55:50;;;;;;;9.75;6.60;;;;;;;29.88;nan;62933.97;5092162;28;20173;-59
2023/06/22 03:58:16;;;;;;;12.48;6.28;;;;;;;30.50;nan;63065.94;5091110;28;20185;-59
2023/06/22 04:00:41;;;;;;;12.02;6.70;;;;;;;30.29;nan;63107.69;5092259;28;20188;-61
2023/06/22 04:03:07;;;;;;;10.70;6.47;;;;;;;28.55;nan;62844.09;5091820;28;20300;-61
2023/06/22 04:05:33;;;;;;;11.07;6.63;;;;;;;31.69;nan;63279.94;5092108;28;20655;-59
2023/06/22 04:07:58;;;;;;;11.60;7.07;;;;;;;31.80;nan;63301.13;5087909;28;20697;-60
2023/06/22 04:10:24;;;;;;;10.80;6.85;;;;;;;32.18;nan;63431.72;5091622;28;20200;-60
2023/06/22 04:12:49;;;;;;;11.00;6.65;;;;;;;32.36;nan;63573.69;5090814;28;20320;-60
2023/06/22 04:15:15;;;;;;;9.50;6.32;;;;;;;32.13;nan;63362.44;5091776;28;20631;-60
2023/06/22 04:17:40;;;;;;;13.13;6.55;;;;;;;32.38;nan;63391.28;5091152;28;20191;-60
2023/06/22 04:20:06;;;;;;;10.48;6.72;;;;;;;32.21;nan;63315.53;5085768;28;20615;-60
2023/06/22 04:22:32;;;;;;;10.80;6.63;;;;;;;32.16;nan;63305.03;5082832;28;20185;-62
2023/06/22 04:24:57;;;;;;;10.25;6.75;;;;;;;32.38;nan;63284.81;5082130;28;20169;-60
2023/06/22 04:27:23;;;;;;;9.75;6.18;;;;;;;32.53;nan;63394.78;5086715;28;20200;-59
2023/06/22 04:29:48;;;;;;;11.52;6.35;;;;;;;32.96;nan;63454.47;5081234;28;20195;-61
2023/06/22 04:32:17;;;;;;;11.85;6.63;;;;;;;32.42;nan;63416.50;5081945;28;20169;-60
2023/06/22 04:34:42;;;;;;;12.73;7.80;;;;;;;32.47;nan;63519.63;5086329;28;20711;-60
2023/06/22 04:37:08;;;;;;;10.38;7.03;;;;;;;32.45;nan;63480.84;5096067;28;20254;-59
2023/06/22 04:39:33;;;;;;;10.30;6.72;;;;;;;32.55;nan;63455.34;5096087;28;20515;-60
2023/06/22 04:42:02;;;;;;;11.52;6.63;;;;;;;32.12;nan;63395.69;5095984;28;20249;-60
2023/06/22 04:44:28;;;;;;;11.38;7.15;;;;;;;32.11;nan;63383.94;5094435;28;20173;-61
2023/06/22 04:47:02;;;;;;;12.70;6.95;;;;;;;31.60;nan;63200.81;5095368;28;20177;-59
2023/06/22 04:49:35;;;;;;;9.43;6.43;;;;;;;31.47;nan;63200.22;5095648;28;20192;-60
2023/06/22 04:52:06;;;;;;;12.32;6.95;;;;;;;31.33;nan;63139.16;5095475;28;20161;-59
2023/06/22 04:54:35;;;;;;;13.73;7.75;;;;;;;31.25;nan;63185.44;5095193;28;20204;-61
2023/06/22 04:57:01;;;;;;;13.15;7.20;;;;;;;31.45;nan;63211.09;5094961;28;20565;-60
2023/06/22 04:59:29;;;;;;;10.55;6.85;;;;;;;31.40;nan;63231.78;5093763;28;20169;-60
2023/06/22 05:02:00;;;;;;;13.00;7.90;;;;;;;31.67;nan;63230.03;5095074;28;20217;-61
2023/06/22 05:04:27;;;;;;;11.68;7.40;;;;;;;31.50;nan;63282.38;5092866;28;20196;-60
2023/06/22 05:06:54;;;;;;;13.85;8.05;;;;;;;31.39;nan;63185.13;5094624;28;20200;-60
2023/06/22 05:09:20;;;;;;;12.43;7.63;;;;;;;31.25;nan;63190.16;5094457;28;20180;-60
2023/06/22 05:11:46;;;;;;;11.57;7.30;;;;;;;31.27;nan;63253.22;5094728;28;20177;-59
2023/06/22 05:14:12;;;;;;;12.68;7.63;;;;;;;31.19;nan;63283.63;5094343;28;20254;-60
2023/06/22 05:16:38;;;;;;;11.25;6.93;;;;;;;31.27;nan;63213.56;5094509;28;20198;-61
2023/06/22 05:19:03;;;;;;;12.10;7.38;;;;;;;31.13;nan;63235.00;5094683;28;20556;-59
2023/06/22 05:21:30;;;;;;;11.90;7.35;;;;;;;31.51;nan;63328.44;5094181;28;20172;-60
2023/06/22 05:23:59;;;;;;;11.27;7.20;;;;;;;31.93;nan;63291.72;5094564;28;20251;-60
2023/06/22 05:26:29;;;;;;;10.75;6.32;;;;;;;31.73;nan;63274.53;5094172;28;20176;-59
2023/06/22 05:28:54;;;;;;;8.82;5.90;;;;;;;30.92;nan;63264.19;5093652;28;20161;-60
2023/06/22 05:31:20;;;;;;;7.85;5.43;;;;;;;31.47;nan;63220.78;5094685;28;20184;-59
2023/06/22 05:33:47;;;;;;;8.73;6.03;;;;;;;30.74;nan;63234.94;5094931;28;20213;-60
2023/06/22 05:36:13;;;;;;;9.18;6.10;;;;;;;30.62;nan;63372.69;5095250;28;20176;-60
2023/06/22 05:38:39;;;;;;;11.20;6.15;;;;;;;30.93;nan;63204.59;5094573;28;20172;-61
2023/06/22 05:41:05;;;;;;;9.02;6.30;;;;;;;30.72;nan;63077.47;5094542;28;20632;-61
2023/06/22 05:43:30;;;;;;;8.93;5.95;;;;;;;30.84;nan;63204.22;5094699;28;20516;-60
2023/06/22 05:45:56;;;;;;;9.65;6.22;;;;;;;30.78;nan;63392.66;5094785;28;20173;-61
2023/06/22 05:48:21;;;;;;;11.35;6.03;;;;;;;30.28;nan;63307.63;5093876;28;20165;-61
2023/06/22 05:50:47;;;;;;;10.00;6.22;;;;;;;29.89;nan;63175.59;5094420;28;20187;-60
2023/06/22 05:53:12;;;;;;;8.75;5.80;;;;;;;29.11;nan;62915.16;5094475;28;20283;-61
2023/06/22 05:55:37;;;;;;;11.15;5.97;;;;;;;27.81;nan;62618.44;5094214;28;20230;-60
2023/06/22 05:58:03;;;;;;;8.82;6.40;;;;;;;27.70;nan;62621.63;5094496;28;20613;-60
2023/06/22 06:00:29;;;;;;;9.57;6.63;;;;;;;27.68;nan;62669.25;5094783;28;20541;-61
2023/06/22 06:02:54;;;;;;;8.30;5.97;;;;;;;27.59;nan;62561.75;5094814;28;20225;-61
2023/06/22 06:05:20;;;;;;;10.75;6.10;;;;;;;27.44;nan;62618.66;5093638;28;20249;-61
2023/06/22 06:07:46;;;;;;;10.07;6.65;;;;;;;27.62;nan;62625.59;5094437;28;20172;-61
2023/06/22 06:10:11;;;;;;;8.68;6.15;;;;;;;27.53;nan;62583.78;5094444;28;20177;-61
2023/06/22 06:12:37;;;;;;;8.57;6.10;;;;;;;27.74;nan;62592.06;5094315;28;20206;-60
2023/06/22 06:15:03;;;;;;;9.30;6.07;;;;;;;27.95;nan;62668.06;5094185;28;20212;-61
2023/06/22 06:17:29;;;;;;;8.10;5.82;;;;;;;28.06;nan;62670.72;5093868;28;20173;-61
2023/06/22 06:19:54;;;;;;;8.88;5.95;;;;;;;27.71;nan;62704.19;5093994;28;20249;-60
2023/06/22 06:22:21;;;;;;;8.52;6.13;;;;;;;27.75;nan;62653.03;5094124;28;20177;-60
2023/06/22 06:24:47;;;;;;;9.80;6.28;;;;;;;27.99;nan;62699.50;5094025;28;20643;-61
2023/06/22 06:27:13;;;;;;;9.88;6.45;;;;;;;27.67;nan;62631.31;5093766;28;20184;-60
2023/06/22 06:29:39;;;;;;;10.52;6.22;;;;;;;27.95;nan;62736.38;5094018;28;20165;-60
2023/06/22 06:32:04;;;;;;;12.60;6.65;;;;;;;28.31;nan;62721.91;5093800;28;20591;-61
2023/06/22 06:34:30;;;;;;;9.43;6.22;;;;;;;28.44;nan;62726.28;5092191;28;20200;-61
2023/06/22 06:36:55;;;;;;;9.32;6.43;;;;;;;28.56;nan;62753.19;5093879;28;20174;-61
2023/06/22 06:39:21;;;;;;;9.18;6.47;;;;;;;28.39;nan;62807.34;5093678;28;20173;-61
2023/06/22 06:41:46;;;;;;;9.30;6.40;;;;;;;28.61;nan;62779.38;5093332;28;20173;-61
2023/06/22 06:44:12;;;;;;;10.50;6.78;;;;;;;28.72;nan;62803.13;5093184;28;20303;-61
2023/06/22 06:46:37;;;;;;;11.88;6.00;;;;;;;;;;5093566;28;20187;-62
2023/06/22 06:49:03;;;;;;;12.25;6.72;;;;;;;29.31;nan;63091.50;5093326;28;20230;-61
2023/06/22 06:51:28;;;;;;;11.88;6.88;;;;;;;29.20;nan;62962.94;5093615;28;20248;-61
2023/06/22 06:53:54;;;;;;;8.82;6.43;;;;;;;29.55;nan;62902.50;5093221;28;20206;-61
2023/06/22 06:56:20;;;;;;;10.40;6.68;;;;;;;29.75;nan;62959.16;5093276;28;20257;-61
2023/06/22 06:58:45;;;;;;;9.52;6.25;;;;;;;29.76;nan;62918.72;5092860;28;20624;-62
2023/06/22 07:01:14;;;;;;;8.98;5.75;;;;;;;29.81;nan;62927.09;5092859;28;20165;-60
2023/06/22 07:03:40;;;;;;;8.75;6.07;;;;;;;30.26;nan;63030.97;5092502;28;20172;-61
2023/06/22 07:06:05;;;;;;;9.35;6.30;;;;;;;30.51;nan;63080.28;5093619;28;20537;-61
2023/06/22 07:08:30;;;;;;;8.73;5.80;;;;;;;30.57;nan;63343.16;5092690;28;20176;-60
2023/06/22 07:10:56;;;;;;;9.95;5.93;;;;;;;30.19;nan;63120.53;5092891;28;20267;-61
2023/06/22 07:13:22;;;;;;;8.93;6.07;;;;;;;29.55;nan;62980.97;5092862;28;20200;-60
2023/06/22 07:15:47;;;;;;;7.97;5.38;;;;;;;29.56;nan;63029.53;5092801;28;20260;-60
2023/06/22 07:18:12;;;;;;;8.63;5.80;;;;;;;29.41;nan;62860.66;5092485;28;20225;-61
2023/06/22 07:20:39;;;;;;;8.70;6.03;;;;;;;29.33;nan;62912.06;5093088;28;20185;-60
2023/06/22 07:23:05;;;;;;;7.90;5.32;;;;;;;29.45;nan;62953.69;5092724;28;20165;-62
2023/06/22 07:25:30;;;;;;;10.80;6.38;;;;;;;29.39;nan;62813.59;5092947;28;20165;-61
2023/06/22 07:28:07;;;;;;;10.50;6.22;;;;;;;29.75;nan;62962.38;5092459;28;20656;-60
2023/06/22 07:30:34;;;;;;;7.97;5.07;;;;;;;29.48;nan;62799.06;5092264;28;20175;-60
2023/06/22 07:33:03;;;;;;;9.40;5.88;;;;;;;29.71;nan;62926.16;5092834;28;20204;-60
2023/06/22 07:35:29;;;;;;;10.85;6.93;;;;;;;29.77;nan;63009.47;5092390;28;20518;-61
2023/06/22 07:37:55;;;;;;;10.45;5.80;;;;;;;29.90;nan;62933.66;5092259;28;20233;-61
2023/06/22 07:40:20;;;;;;;7.60;5.30;;;;;;;29.77;nan;62938.31;5092026;28;20169;-61
2023/06/22 07:42:48;;;;;;;8.30;5.65;;;;;;;29.88;nan;63066.38;5092128;28;20175;-61
2023/06/22 07:45:13;;;;;;;9.30;5.93;;;;;;;26.92;nan;62627.94;5091415;28;20256;-60
2023/06/22 07:47:39;;;;;;;12.20;7.93;;;;;;;29.98;nan;63101.03;5090818;28;20269;-61
2023/06/22 07:50:05;;;;;;;10.07;6.63;;;;;;;28.88;nan;62949.84;5092209;28;20165;-60
2023/06/22 07:52:30;;;;;;;7.80;5.30;;;;;;;30.50;nan;63324.53;5091876;28;20196;-60
2023/06/22 07:54:56;;;;;;;8.88;6.20;;;;;;;30.23;nan;63005.84;5091764;28;20196;-60
2023/06/22 07:57:21;;;;;;;7.80;5.57;;;;;;;30.69;nan;63064.03;5091448;28;20559;-60
2023/06/22 07:59:47;;;;;;;10.57;5.88;;;;;;;30.87;nan;63154.88;5091433;28;20175;-60
2023/06/22 08:02:12;;;;;;;14.98;7.45;;;;;;;30.85;nan;63276.66;5092057;28;20581;-61
2023/06/22 08:04:38;;;;;;;10.10;6.13;;;;;;;31.01;nan;63152.53;5091860;28;20194;-59
2023/06/22 08:07:04;;;;;;;10.48;6.63;;;;;;;31.02;nan;63183.31;5092254;28;20172;-60
2023/06/22 08:09:32;;;;;;;8.73;6.00;;;;;;;31.18;nan;63142.44;5091921;28;20161;-60
2023/06/22 08:11:59;;;;;;;9.52;6.07;;;;;;;31.11;nan;63259.13;5091979;28;20399;-61
2023/06/22 08:14:27;;;;;;;11.02;6.20;;;;;;;31.32;nan;63193.50;5091414;28;20231;-60
2023/06/22 08:16:53;;;;;;;8.98;5.75;;;;;;;31.37;nan;63191.31;5092330;28;20692;-61
2023/06/22 08:19:18;;;;;;;10.48;5.40;;;;;;;31.04;nan;63114.28;5091853;28;20168;-60
2023/06/22 08:21:44;;;;;;;8.77;5.95;;;;;;;30.93;nan;63149.16;5092106;28;20194;-60
2023/06/22 08:24:09;;;;;;;9.88;6.32;;;;;;;31.18;nan;63211.72;5092059;28;20252;-60
2023/06/22 08:26:37;;;;;;;9.48;6.20;;;;;;;27.05;nan;62611.31;5090824;28;20176;-61
2023/06/22 08:29:03;;;;;;;10.02;6.60;;;;;;;31.13;nan;63105.59;5091148;28;20643;-61
2023/06/22 08:31:28;;;;;;;10.23;6.03;;;;;;;31.25;nan;63211.88;5091484;28;20161;-60
2023/06/22 08:33:54;;;;;;;8.48;5.72;;;;;;;31.27;nan;63451.38;5089969;28;20220;-61
2023/06/22 08:36:19;;;;;;;9.90;5.90;;;;;;;31.40;nan;63149.84;5090737;28;20220;-61
2023/06/22 08:38:48;;;;;;;8.20;5.32;;;;;;;31.78;nan;63282.38;5090889;28;20169;-61
2023/06/22 08:41:13;;;;;;;7.88;5.55;;;;;;;31.93;nan;63368.44;5090956;28;20229;-61
2023/06/22 08:43:39;;;;;;;7.75;5.13;;;;;;;31.80;nan;63279.97;5090771;28;20201;-61
2023/06/22 08:46:04;;;;;;;9.88;5.57;;;;;;;31.95;nan;63328.44;5091397;28;20256;-60
2023/06/22 08:48:30;;;;;;;7.38;5.20;;;;;;;31.99;nan;63356.84;5091301;28;20256;-60
2023/06/22 08:50:55;;;;;;;12.98;5.55;;;;;;;32.07;nan;63384.00;5091250;28;20172;-60
2023/06/22 08:53:20;;;;;;;10.15;4.95;;;;;;;31.94;nan;63343.72;5091270;28;20580;-61
2023/06/22 08:55:46;;;;;;;9.85;5.97;;;;;;;31.85;nan;63254.00;5090858;28;20181;-61
2023/06/22 08:58:11;;;;;;;9.23;6.13;;;;;;;32.09;nan;63349.28;5090903;28;20179;-61
2023/06/22 09:00:37;;;;;;;10.18;6.40;;;;;;;31.84;nan;63279.28;5092163;28;20234;-61
2023/06/22 09:03:02;;;;;;;10.65;6.93;;;;;;;32.16;nan;63375.91;5091425;28;20323;-61
2023/06/22 09:05:28;;;;;;;12.00;6.82;;;;;;;31.96;nan;63374.53;5091433;28;20160;-61
2023/06/22 09:07:58;;;;;;;10.93;6.78;;;;;;;31.78;nan;63298.81;5091527;28;20211;-60
2023/06/22 09:10:24;;;;;;;8.48;5.18;;;;;;;31.77;nan;63275.94;5091418;28;20261;-60
2023/06/22 09:12:49;;;;;;;7.75;5.15;;;;;;;31.93;nan;63569.44;5090915;28;20621;-60
2023/06/22 09:15:15;;;;;;;9.15;5.60;;;;;;;31.77;nan;63244.22;5091995;28;20207;-60
2023/06/22 09:17:41;;;;;;;7.43;5.40;;;;;;;32.02;nan;63564.00;5091453;28;20631;-61
2023/06/22 09:20:10;;;;;;;6.72;4.80;;;;;;;31.88;nan;63288.59;5091496;28;20192;-61
2023/06/22 09:22:35;;;;;;;9.18;5.85;;;;;;;32.12;nan;63377.16;5092584;28;20165;-60
2023/06/22 09:25:01;;;;;;;8.00;5.72;;;;;;;32.58;nan;63394.69;5094948;28;20305;-60
2023/06/22 09:27:26;;;;;;;8.13;5.20;;;;;;;32.13;nan;63248.69;5094743;28;20548;-60
2023/06/22 09:29:52;;;;;;;9.65;4.90;;;;;;;31.99;nan;63351.56;5095144;28;20173;-60
2023/06/22 09:32:17;;;;;;;7.43;5.15;;;;;;;31.92;nan;63266.78;5094778;28;20699;-61
2023/06/22 09:34:43;;;;;;;8.43;5.15;;;;;;;31.95;nan;63315.75;5094352;28;20208;-61
2023/06/22 09:37:08;;;;;;;7.80;5.30;;;;;;;31.93;nan;63255.28;5094922;28;20181;-60
2023/06/22 09:39:33;;;;;;;6.70;4.82;;;;;;;31.89;nan;63290.34;5094685;28;20656;-60
2023/06/22 09:42:00;;;;;;;7.85;5.50;;;;;;;32.04;nan;63370.56;5094409;28;20195;-61
2023/06/22 09:44:25;;;;;;;8.32;5.53;;;;;;;31.76;nan;63412.28;5094377;28;20259;-61
2023/06/22 09:46:51;;;;;;;8.10;5.25;;;;;;;32.79;nan;63503.69;5094728;28;20196;-62
2023/06/22 09:49:16;;;;;;;8.77;5.45;;;;;;;32.85;nan;63447.63;5094652;28;20654;-60
2023/06/22 09:51:42;;;;;;;10.38;5.75;;;;;;;32.65;nan;63633.72;5094164;28;20644;-60
2023/06/22 09:54:07;;;;;;;7.55;5.10;;;;;;;32.27;nan;63343.63;5094078;28;20200;-62
2023/06/22 09:56:33;;;;;;;7.05;4.88;;;;;;;32.65;nan;63360.97;5094024;28;20654;-61
2023/06/22 09:58:58;;;;;;;7.50;4.78;;;;;;;32.92;nan;63441.31;5094502;28;20196;-61
2023/06/22 10:01:24;;;;;;;6.53;4.75;;;;;;;32.54;nan;63419.75;5094406;28;20217;-60
2023/06/22 10:03:50;;;;;;;7.97;5.25;;;;;;;32.78;nan;63413.06;5094626;28;20185;-61
2023/06/22 10:06:15;;;;;;;7.10;4.93;;;;;;;32.80;nan;63380.94;5094352;28;20671;-61
2023/06/22 10:08:41;;;;;;;7.60;4.97;;;;;;;32.99;nan;63422.91;5094092;28;20169;-61
2023/06/22 10:11:06;;;;;;;8.10;5.13;;;;;;;33.15;nan;63545.34;5094097;28;20223;-64
2023/06/22 10:13:32;;;;;;;7.63;4.90;;;;;;;32.35;nan;63368.72;5094257;28;20181;-60
2023/06/22 10:15:57;;;;;;;9.25;6.05;;;;;;;32.63;nan;63443.41;5091958;28;20199;-60
2023/06/22 10:18:23;;;;;;;6.80;4.88;;;;;;;32.38;nan;63391.28;5093881;28;20165;-60
2023/06/22 10:20:52;;;;;;;16.67;6.90;;;;;;;32.42;nan;63352.97;5092888;28;20173;-61
2023/06/22 10:23:19;;;;;;;18.50;8.80;;;;;;;32.84;nan;63520.63;5094006;28;20172;-61
2023/06/22 10:25:44;;;;;;;16.00;6.85;;;;;;;32.88;nan;63643.88;5093530;28;20176;-61
2023/06/22 10:28:10;;;;;;;8.18;5.50;;;;;;;33.29;nan;63529.69;5094198;28;20169;-61
2023/06/22 10:30:35;;;;;;;6.97;5.15;;;;;;;32.69;nan;63439.75;5093502;28;20635;-61
2023/06/22 10:33:01;;;;;;;8.65;5.40;;;;;;;32.04;nan;63309.13;5093323;28;20165;-61
2023/06/22 10:35:26;;;;;;;8.38;5.10;;;;;;;32.05;nan;63411.38;5093802;28;20221;-60
2023/06/22 10:37:52;;;;;;;7.65;5.35;;;;;;;32.51;nan;63426.31;5093481;28;20164;-60
2023/06/22 10:40:18;;;;;;;6.50;4.85;;;;;;;32.67;nan;63551.31;5092861;28;20653;-60
2023/06/22 10:42:44;;;;;;;7.68;5.28;;;;;;;33.13;nan;63494.72;5093589;28;20255;-61
2023/06/22 10:45:10;;;;;;;8.38;5.22;;;;;;;33.29;nan;63632.50;5093506;28;20173;-62
2023/06/22 10:47:36;;;;;;;7.18;5.22;;;;;;;33.42;nan;63538.84;5093509;28;20197;-61
2023/06/22 10:50:02;;;;;;;8.98;5.55;;;;;;;33.59;nan;63568.53;5093532;28;20180;-60
2023/06/22 10:52:28;;;;;;;7.90;5.07;;;;;;;33.48;nan;63653.91;5093556;28;20179;-60
2023/06/22 10:54:53;;;;;;;7.55;5.28;;;;;;;32.96;nan;63443.28;5092743;28;20197;-61
2023/06/22 10:57:18;;;;;;;10.75;5.70;;;;;;;33.11;nan;63490.31;5093642;28;20176;-60
2023/06/22 10:59:44;;;;;;;7.03;5.25;;;;;;;32.76;nan;63452.56;5091936;28;20188;-61
2023/06/22 11:02:09;;;;;;;9.88;5.00;;;;;;;32.56;nan;63657.13;5093227;28;20613;-60
2023/06/22 11:04:35;;;;;;;7.95;5.03;;;;;;;32.09;nan;63288.44;5092930;28;20636;-61
2023/06/22 11:07:01;;;;;;;7.30;5.40;;;;;;;31.98;nan;63271.63;5092988;28;20729;-60
2023/06/22 11:09:26;;;;;;;7.80;5.18;;;;;;;32.18;nan;63315.28;5092718;28;20306;-60
2023/06/22 11:11:55;;;;;;;6.90;4.95;;;;;;;32.03;nan;63210.69;5092874;28;20188;-61
2023/06/22 11:14:21;;;;;;;10.73;5.07;;;;;;;32.45;nan;63348.50;5091459;28;20268;-61
2023/06/22 11:16:47;;;;;;;8.73;5.35;;;;;;;32.69;nan;63447.69;5092081;28;20195;-62
2023/06/22 11:19:12;;;;;;;7.43;5.30;;;;;;;32.86;nan;63461.44;5090049;28;20818;-61
2023/06/22 11:21:38;;;;;;;6.90;4.95;;;;;;;33.59;nan;63621.56;5091505;28;20169;-61
2023/06/22 11:24:03;;;;;;;9.32;5.55;;;;;;;33.36;nan;63492.13;5091135;28;20179;-60
2023/06/22 11:26:29;;;;;;;7.03;5.10;;;;;;;33.52;nan;63658.56;5092275;28;20172;-60
2023/06/22 11:28:55;;;;;;;8.38;5.15;;;;;;;30.50;nan;63184.69;5092097;28;20181;-60
2023/06/22 11:31:21;;;;;;;6.78;4.95;;;;;;;32.18;nan;63301.47;5092093;28;20157;-59
2023/06/22 11:33:47;;;;;;;12.05;5.60;;;;;;;32.06;nan;63303.50;5091855;28;20292;-60
2023/06/22 11:36:14;;;;;;;8.38;5.22;;;;;;;31.62;nan;63264.50;5091958;28;20180;-61
2023/06/22 11:38:40;;;;;;;7.10;4.53;;;;;;;31.70;nan;63500.53;5091513;28;20171;-60
2023/06/22 11:41:09;;;;;;;7.22;4.97;;;;;;;31.98;nan;63302.78;5091929;28;20161;-60
2023/06/22 11:43:36;;;;;;;6.82;4.97;;;;;;;32.21;nan;63421.94;5091953;28;20179;-60